sensor_id;sensor_type;location;lat;lon;timestamp;pressure;altitude;pressure_sealevel;temperature;humidity
84083;BME280;74174;52.224;6.878;2024-03-29T00:00:42;98914.88;;;8.88;68.46
84083;BME280;74174;52.224;6.878;2024-03-29T00:03:10;98911.69;;;8.86;67.99
84083;BME280;74174;52.224;6.878;2024-03-29T00:05:35;98909.22;;;8.79;68.09
84083;BME280;74174;52.224;6.878;2024-03-29T00:08:02;98902.09;;;8.80;68.67
84083;BME280;74174;52.224;6.878;2024-03-29T00:10:27;98912.16;;;8.83;68.42
84083;BME280;74174;52.224;6.878;2024-03-29T00:12:53;98901.31;;;8.79;68.19
84083;BME280;74174;52.224;6.878;2024-03-29T00:15:18;98903.44;;;8.82;68.33
84083;BME280;74174;52.224;6.878;2024-03-29T00:17:45;98904.50;;;8.81;68.42
84083;BME280;74174;52.224;6.878;2024-03-29T00:20:11;98909.47;;;8.78;68.45
84083;BME280;74174;52.224;6.878;2024-03-29T00:22:37;98901.78;;;8.76;68.64
84083;BME280;74174;52.224;6.878;2024-03-29T00:25:03;98907.81;;;8.72;69.27
84083;BME280;74174;52.224;6.878;2024-03-29T00:27:29;98904.09;;;8.73;69.11
84083;BME280;74174;52.224;6.878;2024-03-29T00:29:56;98906.59;;;8.79;68.26
84083;BME280;74174;52.224;6.878;2024-03-29T00:32:22;98890.66;;;8.74;68.68
84083;BME280;74174;52.224;6.878;2024-03-29T00:34:51;98905.53;;;8.80;68.55
84083;BME280;74174;52.224;6.878;2024-03-29T00:37:18;98909.53;;;8.83;68.74
84083;BME280;74174;52.224;6.878;2024-03-29T00:39:46;98907.69;;;8.83;68.10
84083;BME280;74174;52.224;6.878;2024-03-29T00:42:11;98913.03;;;8.88;68.02
84083;BME280;74174;52.224;6.878;2024-03-29T00:44:40;98904.78;;;8.85;68.29
84083;BME280;74174;52.224;6.878;2024-03-29T00:47:05;98912.50;;;8.86;68.32
84083;BME280;74174;52.224;6.878;2024-03-29T00:49:32;98911.13;;;8.84;68.29
84083;BME280;74174;52.224;6.878;2024-03-29T00:51:59;98900.03;;;8.82;68.45
84083;BME280;74174;52.224;6.878;2024-03-29T00:54:24;98908.25;;;8.85;67.96
84083;BME280;74174;52.224;6.878;2024-03-29T00:56:50;98916.97;;;8.86;68.17
84083;BME280;74174;52.224;6.878;2024-03-29T00:59:16;98923.00;;;8.81;68.44
84083;BME280;74174;52.224;6.878;2024-03-29T01:01:41;98923.28;;;8.85;67.81
84083;BME280;74174;52.224;6.878;2024-03-29T01:04:06;98915.06;;;8.81;67.89
84083;BME280;74174;52.224;6.878;2024-03-29T01:06:32;98917.63;;;8.76;68.14
84083;BME280;74174;52.224;6.878;2024-03-29T01:08:59;98927.72;;;8.79;68.05
84083;BME280;74174;52.224;6.878;2024-03-29T01:11:24;98933.22;;;8.78;68.30
84083;BME280;74174;52.224;6.878;2024-03-29T01:13:50;98936.13;;;8.76;68.19
84083;BME280;74174;52.224;6.878;2024-03-29T01:16:15;98920.94;;;8.67;69.03
84083;BME280;74174;52.224;6.878;2024-03-29T01:18:41;98936.94;;;8.77;68.49
84083;BME280;74174;52.224;6.878;2024-03-29T01:21:08;98927.16;;;8.77;67.99
84083;BME280;74174;52.224;6.878;2024-03-29T01:23:34;98934.09;;;8.83;67.93
84083;BME280;74174;52.224;6.878;2024-03-29T01:25:59;98925.31;;;8.78;68.08
84083;BME280;74174;52.224;6.878;2024-03-29T01:28:25;98918.13;;;8.73;67.67
84083;BME280;74174;52.224;6.878;2024-03-29T01:30:52;98930.91;;;8.81;68.09
84083;BME280;74174;52.224;6.878;2024-03-29T01:33:18;98938.03;;;8.81;67.94
84083;BME280;74174;52.224;6.878;2024-03-29T01:35:43;98934.84;;;8.79;68.61
84083;BME280;74174;52.224;6.878;2024-03-29T01:38:08;98945.41;;;8.79;68.33
84083;BME280;74174;52.224;6.878;2024-03-29T01:40:34;98939.69;;;8.87;67.71
84083;BME280;74174;52.224;6.878;2024-03-29T01:43:01;98934.09;;;8.83;67.54
84083;BME280;74174;52.224;6.878;2024-03-29T01:45:27;98918.13;;;8.73;68.09
84083;BME280;74174;52.224;6.878;2024-03-29T01:47:53;98924.53;;;8.77;67.70
84083;BME280;74174;52.224;6.878;2024-03-29T01:50:20;98919.72;;;8.74;67.91
84083;BME280;74174;52.224;6.878;2024-03-29T01:52:45;98919.00;;;8.79;67.87
84083;BME280;74174;52.224;6.878;2024-03-29T01:55:12;98909.63;;;8.71;67.71
84083;BME280;74174;52.224;6.878;2024-03-29T01:57:38;98912.28;;;8.71;68.36
84083;BME280;74174;52.224;6.878;2024-03-29T02:00:06;98926.75;;;8.69;68.06
84083;BME280;74174;52.224;6.878;2024-03-29T02:02:32;98914.91;;;8.71;67.62
84083;BME280;74174;52.224;6.878;2024-03-29T02:04:58;98905.47;;;8.75;67.49
84083;BME280;74174;52.224;6.878;2024-03-29T02:07:25;98913.09;;;8.72;67.87
84083;BME280;74174;52.224;6.878;2024-03-29T02:09:50;98915.28;;;8.80;67.50
84083;BME280;74174;52.224;6.878;2024-03-29T02:12:16;98904.44;;;8.76;67.31
84083;BME280;74174;52.224;6.878;2024-03-29T02:14:41;98891.69;;;8.73;67.38
84083;BME280;74174;52.224;6.878;2024-03-29T02:17:08;98887.16;;;8.69;67.68
84083;BME280;74174;52.224;6.878;2024-03-29T02:19:34;98890.31;;;8.66;67.31
84083;BME280;74174;52.224;6.878;2024-03-29T02:22:01;98882.94;;;8.68;67.82
84083;BME280;74174;52.224;6.878;2024-03-29T02:24:28;98867.97;;;8.57;68.29
84083;BME280;74174;52.224;6.878;2024-03-29T02:26:56;98850.41;;;8.46;68.35
84083;BME280;74174;52.224;6.878;2024-03-29T02:29:23;98869.25;;;8.54;68.38
84083;BME280;74174;52.224;6.878;2024-03-29T02:31:54;98870.50;;;8.47;68.65
84083;BME280;74174;52.224;6.878;2024-03-29T02:34:20;98862.25;;;8.43;69.17
84083;BME280;74174;52.224;6.878;2024-03-29T02:36:45;98872.81;;;8.43;69.36
84083;BME280;74174;52.224;6.878;2024-03-29T02:39:11;98858.13;;;8.30;69.16
84083;BME280;74174;52.224;6.878;2024-03-29T02:41:36;98883.38;;;8.43;68.99
84083;BME280;74174;52.224;6.878;2024-03-29T02:44:02;98877.47;;;8.36;69.39
84083;BME280;74174;52.224;6.878;2024-03-29T02:46:28;98906.09;;;8.44;69.23
84083;BME280;74174;52.224;6.878;2024-03-29T02:48:54;98904.25;;;8.45;68.80
84083;BME280;74174;52.224;6.878;2024-03-29T02:51:19;98906.91;;;8.45;69.56
84083;BME280;74174;52.224;6.878;2024-03-29T02:53:44;98907.13;;;8.43;69.10
84083;BME280;74174;52.224;6.878;2024-03-29T02:56:10;98912.97;;;8.45;69.53
84083;BME280;74174;52.224;6.878;2024-03-29T02:58:37;98910.50;;;8.39;69.52
84083;BME280;74174;52.224;6.878;2024-03-29T03:01:06;98912.47;;;8.48;69.25
84083;BME280;74174;52.224;6.878;2024-03-29T03:03:33;98905.13;;;8.50;69.29
84083;BME280;74174;52.224;6.878;2024-03-29T03:05:58;98904.47;;;8.60;68.57
84083;BME280;74174;52.224;6.878;2024-03-29T03:08:23;98897.09;;;8.62;68.29
84083;BME280;74174;52.224;6.878;2024-03-29T03:11:07;98909.09;;;8.69;68.27
84083;BME280;74174;52.224;6.878;2024-03-29T03:13:33;98899.31;;;8.70;68.69
84083;BME280;74174;52.224;6.878;2024-03-29T03:15:59;98894.34;;;8.73;68.21
84083;BME280;74174;52.224;6.878;2024-03-29T03:18:25;98905.06;;;8.83;67.42
84083;BME280;74174;52.224;6.878;2024-03-29T03:20:51;98897.69;;;8.85;66.93
84083;BME280;74174;52.224;6.878;2024-03-29T03:23:18;98898.78;;;8.89;67.50
84083;BME280;74174;52.224;6.878;2024-03-29T03:25:45;98898.09;;;8.99;66.94
84083;BME280;74174;52.224;6.878;2024-03-29T03:28:10;98894.38;;;8.95;66.86
84083;BME280;74174;52.224;6.878;2024-03-29T03:30:39;98882.81;;;9.01;66.73
84083;BME280;74174;52.224;6.878;2024-03-29T03:33:05;98886.63;;;9.10;66.41
84083;BME280;74174;52.224;6.878;2024-03-29T03:35:32;98883.19;;;9.10;66.39
84083;BME280;74174;52.224;6.878;2024-03-29T03:37:57;98877.44;;;9.18;65.51
84083;BME280;74174;52.224;6.878;2024-03-29T03:40:23;98883.19;;;9.10;66.11
84083;BME280;74174;52.224;6.878;2024-03-29T03:42:49;98909.41;;;9.16;66.36
84083;BME280;74174;52.224;6.878;2024-03-29T03:45:14;98904.13;;;9.16;66.41
84083;BME280;74174;52.224;6.878;2024-03-29T03:47:41;98889.16;;;9.27;65.70
84083;BME280;74174;52.224;6.878;2024-03-29T03:50:07;98891.28;;;9.25;66.25
84083;BME280;74174;52.224;6.878;2024-03-29T03:52:32;98908.97;;;9.24;66.20
84083;BME280;74174;52.224;6.878;2024-03-29T03:54:58;98915.13;;;9.30;66.01
84083;BME280;74174;52.224;6.878;2024-03-29T03:57:29;98894.69;;;9.47;64.35
84083;BME280;74174;52.224;6.878;2024-03-29T03:59:54;98885.69;;;9.48;64.33
84083;BME280;74174;52.224;6.878;2024-03-29T04:02:20;98908.00;;;9.57;64.44
84083;BME280;74174;52.224;6.878;2024-03-29T04:04:48;98899.03;;;9.58;65.61
84083;BME280;74174;52.224;6.878;2024-03-29T04:07:15;98916.53;;;9.64;65.52
84083;BME280;74174;52.224;6.878;2024-03-29T04:09:40;98919.28;;;9.74;63.99
84083;BME280;74174;52.224;6.878;2024-03-29T04:12:06;98929.31;;;9.72;65.81
84083;BME280;74174;52.224;6.878;2024-03-29T04:14:31;98932.84;;;9.83;65.32
84083;BME280;74174;52.224;6.878;2024-03-29T04:16:56;98948.09;;;9.70;66.25
84083;BME280;74174;52.224;6.878;2024-03-29T04:19:22;98981.47;;;9.77;67.90
84083;BME280;74174;52.224;6.878;2024-03-29T04:21:47;98974.84;;;9.74;68.38
84083;BME280;74174;52.224;6.878;2024-03-29T04:24:13;98982.84;;;9.57;70.90
84083;BME280;74174;52.224;6.878;2024-03-29T04:26:39;98980.13;;;9.47;71.18
84083;BME280;74174;52.224;6.878;2024-03-29T04:29:04;98961.72;;;9.36;71.85
84083;BME280;74174;52.224;6.878;2024-03-29T04:31:30;98963.31;;;9.37;71.46
84083;BME280;74174;52.224;6.878;2024-03-29T04:33:55;98987.56;;;9.29;72.34
84083;BME280;74174;52.224;6.878;2024-03-29T04:36:21;98982.19;;;9.24;72.86
84083;BME280;74174;52.224;6.878;2024-03-29T04:38:46;98986.41;;;9.25;73.26
84083;BME280;74174;52.224;6.878;2024-03-29T04:41:12;98979.72;;;9.17;73.39
84083;BME280;74174;52.224;6.878;2024-03-29T04:43:39;98970.69;;;9.13;73.31
84083;BME280;74174;52.224;6.878;2024-03-29T04:46:11;98984.09;;;9.07;73.72
84083;BME280;74174;52.224;6.878;2024-03-29T04:48:37;98977.75;;;9.08;73.66
84083;BME280;74174;52.224;6.878;2024-03-29T04:51:03;98966.56;;;9.00;74.68
84083;BME280;74174;52.224;6.878;2024-03-29T04:53:29;98968.63;;;8.98;75.55
84083;BME280;74174;52.224;6.878;2024-03-29T04:55:55;98963.53;;;8.92;75.31
84083;BME280;74174;52.224;6.878;2024-03-29T04:58:27;98980.81;;;8.99;75.26
84083;BME280;74174;52.224;6.878;2024-03-29T05:00:54;98989.72;;;8.93;75.58
84083;BME280;74174;52.224;6.878;2024-03-29T05:03:20;98970.53;;;8.81;77.02
84083;BME280;74174;52.224;6.878;2024-03-29T05:05:46;98977.00;;;8.90;76.36
84083;BME280;74174;52.224;6.878;2024-03-29T05:08:12;98976.91;;;8.85;77.15
84083;BME280;74174;52.224;6.878;2024-03-29T05:10:40;98975.00;;;8.81;77.07
84083;BME280;74174;52.224;6.878;2024-03-29T05:13:06;98979.75;;;8.79;78.21
84083;BME280;74174;52.224;6.878;2024-03-29T05:15:32;98983.59;;;8.71;78.81
84083;BME280;74174;52.224;6.878;2024-03-29T05:17:58;98986.16;;;8.66;79.77
84083;BME280;74174;52.224;6.878;2024-03-29T05:20:23;98986.66;;;8.63;80.35
84083;BME280;74174;52.224;6.878;2024-03-29T05:22:49;98997.13;;;8.58;81.30
84083;BME280;74174;52.224;6.878;2024-03-29T05:25:15;98993.59;;;8.53;82.25
84083;BME280;74174;52.224;6.878;2024-03-29T05:27:40;98998.56;;;8.49;82.49
84083;BME280;74174;52.224;6.878;2024-03-29T05:30:07;98985.28;;;8.44;82.91
84083;BME280;74174;52.224;6.878;2024-03-29T05:32:34;98976.81;;;8.42;82.27
84083;BME280;74174;52.224;6.878;2024-03-29T05:35:00;98986.72;;;8.35;83.21
84083;BME280;74174;52.224;6.878;2024-03-29T05:37:25;99002.78;;;8.33;83.75
84083;BME280;74174;52.224;6.878;2024-03-29T05:39:51;99012.56;;;8.33;83.56
84083;BME280;74174;52.224;6.878;2024-03-29T05:42:31;99009.03;;;8.27;83.99
84083;BME280;74174;52.224;6.878;2024-03-29T05:44:57;99012.91;;;8.25;85.27
84083;BME280;74174;52.224;6.878;2024-03-29T05:47:23;99007.88;;;8.23;84.97
84083;BME280;74174;52.224;6.878;2024-03-29T05:49:49;99011.25;;;8.19;85.83
84083;BME280;74174;52.224;6.878;2024-03-29T05:52:14;99010.91;;;8.15;85.96
84083;BME280;74174;52.224;6.878;2024-03-29T05:54:40;99016.63;;;8.12;85.99
84083;BME280;74174;52.224;6.878;2024-03-29T05:57:06;99018.50;;;8.12;85.59
84083;BME280;74174;52.224;6.878;2024-03-29T05:59:35;99025.75;;;8.05;87.26
84083;BME280;74174;52.224;6.878;2024-03-29T06:02:01;99019.69;;;8.04;87.12
84083;BME280;74174;52.224;6.878;2024-03-29T06:04:26;99009.50;;;7.96;88.45
84083;BME280;74174;52.224;6.878;2024-03-29T06:06:58;99013.28;;;8.00;88.33
84083;BME280;74174;52.224;6.878;2024-03-29T06:09:24;99017.97;;;7.98;86.92
84083;BME280;74174;52.224;6.878;2024-03-29T06:11:49;99017.97;;;7.98;87.94
84083;BME280;74174;52.224;6.878;2024-03-29T06:14:14;99015.56;;;7.97;88.46
84083;BME280;74174;52.224;6.878;2024-03-29T06:16:58;99026.03;;;7.92;88.91
84083;BME280;74174;52.224;6.878;2024-03-29T06:19:42;99023.88;;;7.89;88.94
84083;BME280;74174;52.224;6.878;2024-03-29T06:22:09;99031.00;;;7.88;88.77
84083;BME280;74174;52.224;6.878;2024-03-29T06:24:35;99023.06;;;7.88;88.60
84083;BME280;74174;52.224;6.878;2024-03-29T06:27:01;99009.09;;;7.88;88.72
84083;BME280;74174;52.224;6.878;2024-03-29T06:29:26;99020.34;;;7.83;89.91
84083;BME280;74174;52.224;6.878;2024-03-29T06:31:51;99015.06;;;7.83;90.29
84083;BME280;74174;52.224;6.878;2024-03-29T06:34:18;99019.53;;;7.83;89.77
84083;BME280;74174;52.224;6.878;2024-03-29T06:36:45;99016.91;;;7.83;90.26
84083;BME280;74174;52.224;6.878;2024-03-29T06:39:11;99021.38;;;7.82;90.14
84083;BME280;74174;52.224;6.878;2024-03-29T06:41:37;99028.09;;;7.90;90.56
84083;BME280;74174;52.224;6.878;2024-03-29T06:44:03;99026.03;;;7.92;89.78
84083;BME280;74174;52.224;6.878;2024-03-29T06:46:29;99011.34;;;7.96;90.68
84083;BME280;74174;52.224;6.878;2024-03-29T06:48:57;99001.84;;;7.95;90.37
84083;BME280;74174;52.224;6.878;2024-03-29T06:51:22;99011.75;;;8.04;89.72
84083;BME280;74174;52.224;6.878;2024-03-29T06:53:48;99017.84;;;8.05;89.95
84083;BME280;74174;52.224;6.878;2024-03-29T06:56:13;99009.13;;;8.04;89.77
84083;BME280;74174;52.224;6.878;2024-03-29T06:58:41;99014.63;;;8.03;90.58
84083;BME280;74174;52.224;6.878;2024-03-29T07:01:07;99009.84;;;8.00;90.51
84083;BME280;74174;52.224;6.878;2024-03-29T07:03:34;99006.63;;;7.98;90.68
84083;BME280;74174;52.224;6.878;2024-03-29T07:05:59;98999.75;;;7.97;90.53
84083;BME280;74174;52.224;6.878;2024-03-29T07:08:25;98993.19;;;7.99;90.48
84083;BME280;74174;52.224;6.878;2024-03-29T07:10:58;98983.22;;;8.01;90.33
84083;BME280;74174;52.224;6.878;2024-03-29T07:13:23;98987.78;;;8.06;90.41
84083;BME280;74174;52.224;6.878;2024-03-29T07:15:51;98967.84;;;7.98;90.51
84083;BME280;74174;52.224;6.878;2024-03-29T07:18:17;98985.38;;;8.04;90.64
84083;BME280;74174;52.224;6.878;2024-03-29T07:20:43;98991.88;;;8.13;90.75
84083;BME280;74174;52.224;6.878;2024-03-29T07:23:08;98980.75;;;8.11;90.87
84083;BME280;74174;52.224;6.878;2024-03-29T07:25:33;98970.03;;;8.18;90.49
84083;BME280;74174;52.224;6.878;2024-03-29T07:27:59;98946.28;;;8.18;90.93
84083;BME280;74174;52.224;6.878;2024-03-29T07:30:24;98950.06;;;8.22;90.80
84083;BME280;74174;52.224;6.878;2024-03-29T07:32:49;98957.28;;;8.26;90.52
84083;BME280;74174;52.224;6.878;2024-03-29T07:35:15;98967.84;;;8.26;90.50
84083;BME280;74174;52.224;6.878;2024-03-29T07:37:42;98961.84;;;8.31;90.73
84083;BME280;74174;52.224;6.878;2024-03-29T07:40:11;98966.38;;;8.35;90.08
84083;BME280;74174;52.224;6.878;2024-03-29T07:42:37;98960.34;;;8.35;90.01
84083;BME280;74174;52.224;6.878;2024-03-29T07:45:02;98945.44;;;8.29;89.68
84083;BME280;74174;52.224;6.878;2024-03-29T07:47:28;98951.13;;;8.38;89.57
84083;BME280;74174;52.224;6.878;2024-03-29T07:49:53;98960.47;;;8.45;89.31
84083;BME280;74174;52.224;6.878;2024-03-29T07:52:19;98974.38;;;8.57;89.06
84083;BME280;74174;52.224;6.878;2024-03-29T07:54:44;98969.44;;;8.61;88.93
84083;BME280;74174;52.224;6.878;2024-03-29T07:57:10;98980.56;;;8.63;89.00
84083;BME280;74174;52.224;6.878;2024-03-29T07:59:36;98983.50;;;8.66;88.09
84083;BME280;74174;52.224;6.878;2024-03-29T08:02:01;98981.41;;;8.68;88.71
84083;BME280;74174;52.224;6.878;2024-03-29T08:04:27;98988.31;;;8.69;88.53
84083;BME280;74174;52.224;6.878;2024-03-29T08:06:53;98990.78;;;8.76;87.94
84083;BME280;74174;52.224;6.878;2024-03-29T08:09:19;99001.91;;;8.78;88.35
84083;BME280;74174;52.224;6.878;2024-03-29T08:11:44;98994.31;;;8.81;88.63
84083;BME280;74174;52.224;6.878;2024-03-29T08:14:10;98989.09;;;8.86;87.88
84083;BME280;74174;52.224;6.878;2024-03-29T08:16:36;98991.50;;;8.88;88.13
84083;BME280;74174;52.224;6.878;2024-03-29T08:19:02;98989.47;;;8.95;87.21
84083;BME280;74174;52.224;6.878;2024-03-29T08:21:28;98996.28;;;8.91;87.11
84083;BME280;74174;52.224;6.878;2024-03-29T08:23:54;99002.44;;;8.96;88.13
84083;BME280;74174;52.224;6.878;2024-03-29T08:26:21;98989.38;;;9.07;87.77
84083;BME280;74174;52.224;6.878;2024-03-29T08:28:46;98993.66;;;9.13;87.49
84083;BME280;74174;52.224;6.878;2024-03-29T08:31:11;98988.25;;;9.24;87.57
84083;BME280;74174;52.224;6.878;2024-03-29T08:33:37;98967.03;;;9.36;87.67
84083;BME280;74174;52.224;6.878;2024-03-29T08:36:07;98983.03;;;9.51;88.18
84083;BME280;74174;52.224;6.878;2024-03-29T08:38:33;98981.31;;;9.61;86.42
84083;BME280;74174;52.224;6.878;2024-03-29T08:41:00;98982.22;;;9.72;86.65
84083;BME280;74174;52.224;6.878;2024-03-29T08:43:28;98969.66;;;9.84;86.26
84083;BME280;74174;52.224;6.878;2024-03-29T08:45:55;98964.66;;;9.88;84.39
84083;BME280;74174;52.224;6.878;2024-03-29T08:48:20;98979.22;;;9.90;84.89
84083;BME280;74174;52.224;6.878;2024-03-29T08:50:46;98972.66;;;9.93;84.72
84083;BME280;74174;52.224;6.878;2024-03-29T08:53:12;98977.50;;;10.01;84.10
84083;BME280;74174;52.224;6.878;2024-03-29T08:55:37;98958.91;;;9.96;83.18
84083;BME280;74174;52.224;6.878;2024-03-29T08:58:06;98963.78;;;10.09;84.39
84083;BME280;74174;52.224;6.878;2024-03-29T09:00:32;98958.84;;;10.12;82.77
84083;BME280;74174;52.224;6.878;2024-03-29T09:02:58;98976.34;;;10.18;82.71
84083;BME280;74174;52.224;6.878;2024-03-29T09:05:25;98992.28;;;10.23;81.87
84083;BME280;74174;52.224;6.878;2024-03-29T09:07:51;98976.13;;;10.25;82.28
84083;BME280;74174;52.224;6.878;2024-03-29T09:10:18;98988.13;;;10.32;83.04
84083;BME280;74174;52.224;6.878;2024-03-29T09:12:45;98974.44;;;10.46;83.16
84083;BME280;74174;52.224;6.878;2024-03-29T09:15:12;98991.50;;;10.55;80.52
84083;BME280;74174;52.224;6.878;2024-03-29T09:17:42;98986.53;;;10.63;81.47
84083;BME280;74174;52.224;6.878;2024-03-29T09:20:08;98976.22;;;10.72;82.35
84083;BME280;74174;52.224;6.878;2024-03-29T09:22:34;98964.56;;;10.68;80.75
84083;BME280;74174;52.224;6.878;2024-03-29T09:25:01;98985.31;;;10.81;80.41
84083;BME280;74174;52.224;6.878;2024-03-29T09:27:28;98977.13;;;10.82;81.50
84083;BME280;74174;52.224;6.878;2024-03-29T09:29:58;98999.38;;;10.86;80.75
84083;BME280;74174;52.224;6.878;2024-03-29T09:32:23;99008.72;;;10.94;80.89
84083;BME280;74174;52.224;6.878;2024-03-29T09:34:48;99000.81;;;10.99;79.53
84083;BME280;74174;52.224;6.878;2024-03-29T09:37:15;99000.25;;;10.97;80.30
84083;BME280;74174;52.224;6.878;2024-03-29T09:39:43;99004.22;;;10.99;78.82
84083;BME280;74174;52.224;6.878;2024-03-29T09:42:13;99012.75;;;11.01;80.14
84083;BME280;74174;52.224;6.878;2024-03-29T09:44:43;99005.34;;;11.08;79.75
84083;BME280;74174;52.224;6.878;2024-03-29T09:47:09;99003.03;;;11.17;80.32
84083;BME280;74174;52.224;6.878;2024-03-29T09:49:36;98989.25;;;11.20;80.86
84083;BME280;74174;52.224;6.878;2024-03-29T09:52:05;98987.97;;;11.33;79.31
84083;BME280;74174;52.224;6.878;2024-03-29T09:54:31;98990.16;;;11.51;79.01
84083;BME280;74174;52.224;6.878;2024-03-29T09:56:57;99006.38;;;11.54;78.39
84083;BME280;74174;52.224;6.878;2024-03-29T09:59:23;98998.69;;;11.58;77.63
84083;BME280;74174;52.224;6.878;2024-03-29T10:01:50;99006.22;;;11.71;78.64
84083;BME280;74174;52.224;6.878;2024-03-29T10:04:17;99006.47;;;11.74;78.35
84083;BME280;74174;52.224;6.878;2024-03-29T10:06:46;99008.06;;;11.75;77.10
84083;BME280;74174;52.224;6.878;2024-03-29T10:09:14;99000.13;;;11.81;78.21
84083;BME280;74174;52.224;6.878;2024-03-29T10:11:41;99016.59;;;11.98;76.51
84083;BME280;74174;52.224;6.878;2024-03-29T10:14:06;99025.66;;;12.07;78.18
84083;BME280;74174;52.224;6.878;2024-03-29T10:16:33;99016.16;;;12.31;78.52
84083;BME280;74174;52.224;6.878;2024-03-29T10:18:59;99024.91;;;12.31;74.76
84083;BME280;74174;52.224;6.878;2024-03-29T10:21:25;99019.06;;;12.44;74.07
84083;BME280;74174;52.224;6.878;2024-03-29T10:23:51;99012.44;;;12.57;75.62
84083;BME280;74174;52.224;6.878;2024-03-29T10:26:17;99022.78;;;12.59;75.21
84083;BME280;74174;52.224;6.878;2024-03-29T10:28:43;99027.56;;;12.87;75.09
84083;BME280;74174;52.224;6.878;2024-03-29T10:31:08;99036.31;;;13.23;73.36
84083;BME280;74174;52.224;6.878;2024-03-29T10:33:34;99036.81;;;13.35;72.60
84083;BME280;74174;52.224;6.878;2024-03-29T10:36:00;99032.03;;;13.32;71.87
84083;BME280;74174;52.224;6.878;2024-03-29T10:38:27;99023.00;;;13.28;70.82
84083;BME280;74174;52.224;6.878;2024-03-29T10:40:53;99029.66;;;13.30;71.49
84083;BME280;74174;52.224;6.878;2024-03-29T10:43:19;99019.84;;;13.10;72.13
84083;BME280;74174;52.224;6.878;2024-03-29T10:45:47;99029.38;;;13.22;72.16
84083;BME280;74174;52.224;6.878;2024-03-29T10:48:14;99032.88;;;13.12;72.86
84083;BME280;74174;52.224;6.878;2024-03-29T10:50:41;99046.97;;;12.97;72.82
84083;BME280;74174;52.224;6.878;2024-03-29T10:53:08;99030.78;;;12.74;72.36
84083;BME280;74174;52.224;6.878;2024-03-29T10:55:34;99028.38;;;12.77;73.77
84083;BME280;74174;52.224;6.878;2024-03-29T10:58:02;99043.28;;;12.83;72.66
84083;BME280;74174;52.224;6.878;2024-03-29T11:00:29;99043.25;;;12.88;72.45
84083;BME280;74174;52.224;6.878;2024-03-29T11:05:40;99025.38;;;13.34;72.43
84083;BME280;74174;52.224;6.878;2024-03-29T11:08:06;99022.13;;;13.42;72.85
84083;BME280;74174;52.224;6.878;2024-03-29T11:10:40;99030.06;;;13.62;72.35
84083;BME280;74174;52.224;6.878;2024-03-29T11:16:08;99035.97;;;13.44;71.20
84083;BME280;74174;52.224;6.878;2024-03-29T11:18:37;99040.81;;;13.32;71.32
84083;BME280;74174;52.224;6.878;2024-03-29T11:21:04;99043.44;;;13.37;71.65
84083;BME280;74174;52.224;6.878;2024-03-29T11:23:33;99032.53;;;13.44;71.54
84083;BME280;74174;52.224;6.878;2024-03-29T11:25:59;99034.91;;;13.50;72.21
84083;BME280;74174;52.224;6.878;2024-03-29T11:28:32;99049.53;;;13.48;71.06
84083;BME280;74174;52.224;6.878;2024-03-29T11:31:03;99076.97;;;13.53;71.66
84083;BME280;74174;52.224;6.878;2024-03-29T11:33:34;99063.06;;;13.61;71.15
84083;BME280;74174;52.224;6.878;2024-03-29T11:36:08;99046.75;;;13.78;71.72
84083;BME280;74174;52.224;6.878;2024-03-29T11:38:36;99069.06;;;13.92;69.64
84083;BME280;74174;52.224;6.878;2024-03-29T11:41:10;99082.59;;;14.01;68.90
84083;BME280;74174;52.224;6.878;2024-03-29T11:43:36;99063.72;;;13.97;67.23
84083;BME280;74174;52.224;6.878;2024-03-29T11:46:05;99056.03;;;13.91;69.31
84083;BME280;74174;52.224;6.878;2024-03-29T11:48:31;99057.63;;;13.92;69.36
84083;BME280;74174;52.224;6.878;2024-03-29T11:50:59;99044.84;;;13.88;69.59
84083;BME280;74174;52.224;6.878;2024-03-29T11:53:24;99051.78;;;13.84;68.90
84083;BME280;74174;52.224;6.878;2024-03-29T11:55:50;99050.47;;;13.77;70.18
84083;BME280;74174;52.224;6.878;2024-03-29T11:58:22;99070.22;;;13.76;69.90
84083;BME280;74174;52.224;6.878;2024-03-29T12:00:50;99066.56;;;13.57;68.84
84083;BME280;74174;52.224;6.878;2024-03-29T12:03:17;99072.69;;;13.52;69.76
84083;BME280;74174;52.224;6.878;2024-03-29T12:05:43;99072.97;;;13.56;70.12
84083;BME280;74174;52.224;6.878;2024-03-29T12:08:09;99079.84;;;13.62;70.37
84083;BME280;74174;52.224;6.878;2024-03-29T12:10:35;99074.56;;;13.47;69.54
84083;BME280;74174;52.224;6.878;2024-03-29T12:13:02;99086.53;;;13.49;70.56
84083;BME280;74174;52.224;6.878;2024-03-29T12:15:28;99098.75;;;13.60;70.23
84083;BME280;74174;52.224;6.878;2024-03-29T12:17:58;99081.72;;;14.20;70.43
84083;BME280;74174;52.224;6.878;2024-03-29T12:20:23;99048.41;;;14.62;67.18
84083;BME280;74174;52.224;6.878;2024-03-29T12:22:49;99069.81;;;15.19;66.45
84083;BME280;74174;52.224;6.878;2024-03-29T12:25:15;99065.94;;;16.01;64.99
84083;BME280;74174;52.224;6.878;2024-03-29T12:27:43;99068.72;;;16.15;62.46
84083;BME280;74174;52.224;6.878;2024-03-29T12:30:09;99065.78;;;15.93;59.39
84083;BME280;74174;52.224;6.878;2024-03-29T12:32:35;99094.22;;;15.83;59.54
84083;BME280;74174;52.224;6.878;2024-03-29T12:35:14;99099.66;;;15.73;61.86
84083;BME280;74174;52.224;6.878;2024-03-29T12:37:50;99101.06;;;16.32;59.79
84083;BME280;74174;52.224;6.878;2024-03-29T12:40:16;99118.63;;;16.62;59.36
84083;BME280;74174;52.224;6.878;2024-03-29T12:42:47;99111.94;;;15.98;58.45
84083;BME280;74174;52.224;6.878;2024-03-29T12:45:12;99117.75;;;15.81;60.81
84083;BME280;74174;52.224;6.878;2024-03-29T12:47:38;99115.69;;;15.73;61.28
84083;BME280;74174;52.224;6.878;2024-03-29T12:50:03;99119.50;;;15.67;61.92
84083;BME280;74174;52.224;6.878;2024-03-29T12:52:39;99110.06;;;15.99;57.94
84083;BME280;74174;52.224;6.878;2024-03-29T12:55:06;99112.03;;;16.54;58.86
84083;BME280;74174;52.224;6.878;2024-03-29T12:57:33;99122.81;;;17.00;56.74
84083;BME280;74174;52.224;6.878;2024-03-29T12:59:59;99120.03;;;16.91;55.79
84083;BME280;74174;52.224;6.878;2024-03-29T13:02:24;99096.78;;;17.65;56.21
84083;BME280;74174;52.224;6.878;2024-03-29T13:04:49;99091.06;;;18.21;53.54
84083;BME280;74174;52.224;6.878;2024-03-29T13:07:16;99087.91;;;18.68;53.77
84083;BME280;74174;52.224;6.878;2024-03-29T13:09:41;99098.09;;;18.57;51.12